createdAt,value
2023-03-17T00:01:12.258Z,5.00
2023-03-17T00:03:41.486Z,5.00
2023-03-17T00:06:24.527Z,5.00
2023-03-17T00:08:51.571Z,5.00
2023-03-17T00:11:18.465Z,5.00
2023-03-17T00:13:46.302Z,5.00
2023-03-17T00:16:28.109Z,4.90
2023-03-17T00:18:55.669Z,5.00
2023-03-17T00:21:28.935Z,5.00
2023-03-17T00:23:56.256Z,5.00
2023-03-17T00:26:24.154Z,5.00
2023-03-17T00:28:52.994Z,5.00
2023-03-17T00:31:24.495Z,5.00
2023-03-17T00:33:54.002Z,5.10
2023-03-17T00:36:23.971Z,5.00
2023-03-17T00:38:52.574Z,5.00
2023-03-17T00:41:19.682Z,5.00
2023-03-17T00:43:46.814Z,5.00
2023-03-17T00:46:17.954Z,5.00
2023-03-17T00:48:45.932Z,5.00
2023-03-17T00:51:13.400Z,5.00
2023-03-17T00:53:40.485Z,5.00
2023-03-17T00:56:17.924Z,5.00
2023-03-17T00:58:45.521Z,5.00
2023-03-17T01:01:12.660Z,5.00
2023-03-17T01:03:39.557Z,5.00
2023-03-17T01:06:10.872Z,5.00
2023-03-17T01:08:40.629Z,5.00
2023-03-17T01:11:15.126Z,5.00
2023-03-17T01:13:41.914Z,5.00
2023-03-17T01:16:12.783Z,5.00
2023-03-17T01:18:39.940Z,5.00
2023-03-17T01:21:06.874Z,5.00
2023-03-17T01:23:33.943Z,5.00
2023-03-17T01:26:00.745Z,5.00
2023-03-17T01:28:28.227Z,5.00
2023-03-17T01:30:55.476Z,5.00
2023-03-17T01:33:22.564Z,5.00
2023-03-17T01:35:51.009Z,5.00
2023-03-17T01:38:18.843Z,5.00
2023-03-17T01:40:49.475Z,5.00
2023-03-17T01:43:30.654Z,5.00
2023-03-17T01:46:20.811Z,5.00
2023-03-17T01:49:12.886Z,5.00
2023-03-17T01:51:51.732Z,4.90
2023-03-17T01:54:30.208Z,5.00
2023-03-17T01:57:03.906Z,4.90
2023-03-17T01:59:35.114Z,5.00
2023-03-17T02:02:07.439Z,5.00
2023-03-17T02:04:35.277Z,4.90
2023-03-17T02:07:03.770Z,5.00
2023-03-17T02:09:32.533Z,4.90
2023-03-17T02:12:01.462Z,4.90
2023-03-17T02:14:28.733Z,4.90
2023-03-17T02:16:56.201Z,4.90
2023-03-17T02:19:23.110Z,4.90
2023-03-17T02:21:52.472Z,4.90
2023-03-17T02:24:22.697Z,4.80
2023-03-17T02:26:50.993Z,4.80
2023-03-17T02:29:20.335Z,4.80
2023-03-17T02:31:47.348Z,4.80
2023-03-17T02:34:15.865Z,4.80
2023-03-17T02:36:43.134Z,4.80
2023-03-17T02:39:10.028Z,4.80
2023-03-17T02:41:37.302Z,4.80
2023-03-17T02:44:04.396Z,4.80
2023-03-17T02:46:31.231Z,4.80
2023-03-17T02:49:01.590Z,4.80
2023-03-17T02:51:28.982Z,4.80
2023-03-17T02:53:56.000Z,4.80
2023-03-17T02:56:22.998Z,4.80
2023-03-17T02:58:49.816Z,4.80
2023-03-17T03:01:18.217Z,4.80
2023-03-17T03:03:45.116Z,4.80
2023-03-17T03:06:12.009Z,4.80
2023-03-17T03:08:39.038Z,4.80
2023-03-17T03:11:06.247Z,4.80
2023-03-17T03:13:33.260Z,4.90
2023-03-17T03:16:00.246Z,4.90
2023-03-17T03:18:27.421Z,4.80
2023-03-17T03:20:54.414Z,4.90
2023-03-17T03:23:21.684Z,4.80
2023-03-17T03:25:48.506Z,4.80
2023-03-17T03:28:15.435Z,4.80
2023-03-17T03:30:44.537Z,4.70
2023-03-17T03:33:13.172Z,4.70
2023-03-17T03:35:40.276Z,4.70
2023-03-17T03:38:07.808Z,4.70
2023-03-17T03:40:36.524Z,4.60
2023-03-17T03:43:13.032Z,4.60
2023-03-17T03:45:48.928Z,4.60
2023-03-17T03:48:16.215Z,4.50
2023-03-17T03:50:43.212Z,4.50
2023-03-17T03:53:10.050Z,4.50
2023-03-17T03:55:37.115Z,4.40
2023-03-17T03:58:04.039Z,4.40
2023-03-17T04:00:31.073Z,4.40
2023-03-17T04:02:58.146Z,4.40
2023-03-17T04:05:25.183Z,4.30
2023-03-17T04:07:51.946Z,4.30
2023-03-17T04:10:18.870Z,4.30
2023-03-17T04:12:46.297Z,4.30
2023-03-17T04:15:16.761Z,4.30
2023-03-17T04:17:44.136Z,4.20
2023-03-17T04:20:13.115Z,4.20
2023-03-17T04:22:41.699Z,4.20
2023-03-17T04:25:10.391Z,4.20
2023-03-17T04:27:37.800Z,4.20
2023-03-17T04:30:05.926Z,4.10
2023-03-17T04:32:32.760Z,4.10
2023-03-17T04:34:59.599Z,4.10
2023-03-17T04:37:26.521Z,4.10
2023-03-17T04:39:55.143Z,4.00
2023-03-17T04:42:22.028Z,4.00
2023-03-17T04:44:48.825Z,4.00
2023-03-17T04:47:15.581Z,4.00
2023-03-17T04:49:42.399Z,4.00
2023-03-17T04:52:09.300Z,4.00
2023-03-17T04:54:37.107Z,4.00
2023-03-17T04:57:03.983Z,4.00
2023-03-17T04:59:30.906Z,4.00
2023-03-17T05:01:57.776Z,4.00
2023-03-17T05:04:31.696Z,3.90
2023-03-17T05:06:59.320Z,3.90
2023-03-17T05:09:28.430Z,3.90
2023-03-17T05:11:55.722Z,3.80
2023-03-17T05:14:22.550Z,3.80
2023-03-17T05:16:49.764Z,3.80
2023-03-17T05:19:17.473Z,3.80
2023-03-17T05:21:44.630Z,3.70
2023-03-17T05:24:11.723Z,3.70
2023-03-17T05:26:39.232Z,3.70
2023-03-17T05:29:06.110Z,3.60
2023-03-17T05:31:33.166Z,3.60
2023-03-17T05:33:59.966Z,3.60
2023-03-17T05:36:26.798Z,3.60
2023-03-17T05:38:53.826Z,3.50
2023-03-17T05:41:20.669Z,3.50
2023-03-17T05:43:47.500Z,3.50
2023-03-17T05:46:14.684Z,3.50
2023-03-17T05:48:41.900Z,3.50
2023-03-17T05:51:08.820Z,3.50
2023-03-17T05:53:38.507Z,3.50
2023-03-17T05:56:06.517Z,3.50
2023-03-17T05:58:33.404Z,3.50
2023-03-17T06:01:00.447Z,3.50
2023-03-17T06:03:27.504Z,3.50
2023-03-17T06:05:54.584Z,3.50
2023-03-17T06:08:21.402Z,3.50
2023-03-17T06:10:48.547Z,3.50
2023-03-17T06:13:15.506Z,3.50
2023-03-17T06:15:43.102Z,3.50
2023-03-17T06:18:10.034Z,3.50
2023-03-17T06:20:37.179Z,3.60
2023-03-17T06:23:05.870Z,3.60
2023-03-17T06:25:36.986Z,3.60
2023-03-17T06:28:05.457Z,3.70
2023-03-17T06:30:34.048Z,3.70
2023-03-17T06:33:02.086Z,3.70
2023-03-17T06:35:30.234Z,3.80
2023-03-17T06:37:58.003Z,3.80
2023-03-17T06:40:24.853Z,3.90
2023-03-17T06:42:51.874Z,3.90
2023-03-17T06:45:18.771Z,3.90
2023-03-17T06:47:45.546Z,4.00
2023-03-17T06:50:12.755Z,4.10
2023-03-17T06:52:40.817Z,4.20
2023-03-17T06:55:08.673Z,4.30
2023-03-17T06:57:35.780Z,4.40
2023-03-17T07:00:06.346Z,4.50
2023-03-17T07:02:33.958Z,4.60
2023-03-17T07:05:01.191Z,4.70
2023-03-17T07:07:28.074Z,4.80
2023-03-17T07:09:54.874Z,4.90
2023-03-17T07:12:21.797Z,5.00
2023-03-17T07:14:48.657Z,5.10
2023-03-17T07:17:16.014Z,5.20
2023-03-17T07:19:45.257Z,5.30
2023-03-17T07:22:12.565Z,5.40
2023-03-17T07:24:41.848Z,5.40
2023-03-17T07:27:09.121Z,5.50
2023-03-17T07:29:36.006Z,5.60
2023-03-17T07:32:06.194Z,5.70
2023-03-17T07:34:33.217Z,5.80
2023-03-17T07:37:00.406Z,6.00
2023-03-17T07:39:27.745Z,6.10
2023-03-17T07:41:57.836Z,6.20
2023-03-17T07:44:25.927Z,6.30
2023-03-17T07:46:53.226Z,6.30
2023-03-17T07:49:38.208Z,6.40
2023-03-17T07:52:08.529Z,6.50
2023-03-17T07:54:36.291Z,6.50
2023-03-17T07:57:04.185Z,6.50
2023-03-17T07:59:31.590Z,6.60
2023-03-17T08:02:00.078Z,6.60
2023-03-17T08:04:27.765Z,6.60
2023-03-17T08:06:54.808Z,6.60
2023-03-17T08:09:25.001Z,6.70
2023-03-17T08:11:52.098Z,6.70
2023-03-17T08:14:19.185Z,6.80
2023-03-17T08:16:46.064Z,6.90
2023-03-17T08:19:12.987Z,6.90
2023-03-17T08:21:39.954Z,7.00
2023-03-17T08:24:07.102Z,7.00
2023-03-17T08:26:34.027Z,7.10
2023-03-17T08:29:01.425Z,7.10
2023-03-17T08:31:28.614Z,7.20
2023-03-17T08:33:58.786Z,7.20
2023-03-17T08:36:26.156Z,7.30
2023-03-17T08:38:53.309Z,7.30
2023-03-17T08:41:23.670Z,7.40
2023-03-17T08:43:51.686Z,7.40
2023-03-17T08:46:28.846Z,7.50
2023-03-17T08:48:58.041Z,7.60
2023-03-17T08:51:27.007Z,7.60
2023-03-17T08:53:54.990Z,7.70
2023-03-17T08:56:22.680Z,7.80
2023-03-17T08:58:50.665Z,7.80
2023-03-17T09:01:18.619Z,7.90
2023-03-17T09:03:45.617Z,8.00
2023-03-17T09:06:13.561Z,8.00
2023-03-17T09:08:45.054Z,8.10
2023-03-17T09:11:16.445Z,8.20
2023-03-17T09:13:44.799Z,8.30
2023-03-17T09:16:11.873Z,8.40
2023-03-17T09:18:39.361Z,8.40
2023-03-17T09:21:06.700Z,8.50
2023-03-17T09:23:33.759Z,8.50
2023-03-17T09:26:01.155Z,8.60
2023-03-17T09:28:29.149Z,8.60
2023-03-17T09:31:04.025Z,8.70
2023-03-17T09:33:31.022Z,8.70
2023-03-17T09:35:58.006Z,8.70
2023-03-17T09:38:27.479Z,8.90
2023-03-17T09:41:07.830Z,9.00
2023-03-17T09:43:56.818Z,9.00
2023-03-17T09:46:48.369Z,9.20
2023-03-17T09:49:25.301Z,9.30
2023-03-17T09:51:52.528Z,9.40
2023-03-17T09:54:27.585Z,9.50
2023-03-17T09:57:04.425Z,9.60
2023-03-17T09:59:38.488Z,9.60
2023-03-17T10:02:27.074Z,9.70
2023-03-17T10:04:54.014Z,9.80
2023-03-17T10:07:35.044Z,9.90
2023-03-17T10:10:05.247Z,10.00
2023-03-17T10:12:44.859Z,10.20
2023-03-17T10:15:38.393Z,10.30
2023-03-17T10:18:14.833Z,10.60
2023-03-17T10:20:51.733Z,10.80
2023-03-17T10:27:09.992Z,11.00
2023-03-17T10:29:37.327Z,11.20
2023-03-17T10:32:04.515Z,11.30
2023-03-17T10:34:36.665Z,11.40
2023-03-17T10:37:13.898Z,11.50
2023-03-17T10:39:54.420Z,11.70
2023-03-17T10:42:32.277Z,11.80
2023-03-17T10:45:24.961Z,11.90
2023-03-17T10:47:55.375Z,12.00
2023-03-17T10:50:28.695Z,12.10
2023-03-17T10:53:01.306Z,12.20
2023-03-17T10:55:33.951Z,12.30
2023-03-17T10:58:18.004Z,12.30
2023-03-17T11:00:59.865Z,12.50
2023-03-17T11:03:31.442Z,12.50
2023-03-17T11:06:12.636Z,12.70
2023-03-17T11:08:45.596Z,12.80
2023-03-17T11:11:30.755Z,12.90
2023-03-17T11:14:13.145Z,13.00
2023-03-17T11:16:56.999Z,13.10
2023-03-17T11:19:42.035Z,13.20
2023-03-17T11:22:24.122Z,13.30
2023-03-17T11:25:20.969Z,13.40
2023-03-17T11:27:58.728Z,13.50
2023-03-17T11:30:35.334Z,13.50
2023-03-17T11:33:46.241Z,13.70
2023-03-17T11:36:28.762Z,13.70
2023-03-17T11:39:02.176Z,13.80
2023-03-17T11:41:44.879Z,13.90
2023-03-17T11:44:38.544Z,14.00
2023-03-17T11:47:12.559Z,14.10
2023-03-17T11:49:41.162Z,14.10
2023-03-17T11:52:32.575Z,14.20
2023-03-17T11:55:07.926Z,14.20
2023-03-17T11:57:48.399Z,14.30
2023-03-17T12:00:38.620Z,14.50
2023-03-17T12:03:49.792Z,14.60
2023-03-17T12:06:25.884Z,14.70
2023-03-17T12:08:59.768Z,14.70
2023-03-17T12:11:30.502Z,14.70
2023-03-17T12:14:06.810Z,14.70
2023-03-17T12:17:18.481Z,14.70
2023-03-17T12:19:58.451Z,14.80
2023-03-17T12:22:33.696Z,14.80
2023-03-17T12:25:05.243Z,15.00
2023-03-17T12:27:37.047Z,15.00
2023-03-17T12:30:15.526Z,15.10
2023-03-17T12:32:58.465Z,15.20
2023-03-17T12:35:29.385Z,15.30
2023-03-17T12:37:59.700Z,15.30
2023-03-17T12:41:00.786Z,15.40
2023-03-17T12:43:40.972Z,15.50
2023-03-17T12:46:11.004Z,15.70
2023-03-17T12:48:45.783Z,15.70
2023-03-17T12:51:43.806Z,15.80
2023-03-17T12:54:27.018Z,15.80
2023-03-17T12:57:04.865Z,15.90
2023-03-17T12:59:33.955Z,16.00
2023-03-17T13:02:18.580Z,16.00
2023-03-17T13:05:02.661Z,16.00
2023-03-17T13:07:54.794Z,16.00
2023-03-17T13:10:38.215Z,16.00
2023-03-17T13:13:23.328Z,16.00
2023-03-17T13:15:55.930Z,16.00
2023-03-17T13:18:35.089Z,16.00
2023-03-17T13:21:02.134Z,16.10
2023-03-17T13:23:41.976Z,16.10
2023-03-17T13:26:12.830Z,16.10
2023-03-17T13:28:41.407Z,16.10
2023-03-17T13:31:16.401Z,16.30
2023-03-17T13:33:53.241Z,16.40
2023-03-17T13:36:37.012Z,16.40
2023-03-17T13:39:19.701Z,16.30
2023-03-17T13:42:17.597Z,16.30
2023-03-17T13:45:07.191Z,16.30
2023-03-17T13:47:42.185Z,16.20
2023-03-17T13:50:09.449Z,16.20
2023-03-17T13:52:39.255Z,16.20
2023-03-17T13:55:18.409Z,16.20
2023-03-17T13:58:15.989Z,16.30
2023-03-17T14:00:49.338Z,16.30
2023-03-17T14:03:19.403Z,16.30
2023-03-17T14:05:53.366Z,16.40
2023-03-17T14:08:38.527Z,16.50
2023-03-17T14:11:22.297Z,16.50
2023-03-17T14:14:15.187Z,16.60
2023-03-17T14:17:00.385Z,16.70
2023-03-17T14:19:29.514Z,16.80
2023-03-17T14:22:04.160Z,16.70
2023-03-17T14:24:33.616Z,16.70
2023-03-17T14:27:10.349Z,16.70
2023-03-17T14:29:37.822Z,16.70
2023-03-17T14:32:13.689Z,16.70
2023-03-17T14:34:44.344Z,16.80
2023-03-17T14:37:12.672Z,16.90
2023-03-17T14:39:50.132Z,16.90
2023-03-17T14:42:20.432Z,16.80
2023-03-17T14:44:47.311Z,16.80
2023-03-17T14:47:24.686Z,16.90
2023-03-17T14:49:54.344Z,16.90
2023-03-17T14:52:27.171Z,16.90
2023-03-17T14:54:57.580Z,17.00
2023-03-17T14:57:31.049Z,17.00
2023-03-17T15:00:22.046Z,17.00
2023-03-17T15:02:57.528Z,17.00
2023-03-17T15:05:36.834Z,17.00
2023-03-17T15:08:30.738Z,17.00
2023-03-17T15:10:59.693Z,17.00
2023-03-17T15:13:28.617Z,17.00
2023-03-17T15:15:56.247Z,16.90
2023-03-17T15:18:24.818Z,16.90
2023-03-17T15:20:51.546Z,16.90
2023-03-17T15:23:24.955Z,16.90
2023-03-17T15:25:56.307Z,16.90
2023-03-17T15:28:33.144Z,16.90
2023-03-17T15:31:12.652Z,16.90
2023-03-17T15:33:40.629Z,16.90
2023-03-17T15:36:14.474Z,16.90
2023-03-17T15:38:46.795Z,16.80
2023-03-17T15:41:13.515Z,16.80
2023-03-17T15:43:40.560Z,16.80
2023-03-17T15:46:14.525Z,16.70
2023-03-17T15:48:42.049Z,16.70
2023-03-17T15:51:10.730Z,16.70
2023-03-17T15:53:37.524Z,16.60
2023-03-17T15:56:04.396Z,16.60
2023-03-17T15:58:31.187Z,16.50
2023-03-17T16:00:59.970Z,16.50
2023-03-17T16:03:29.825Z,16.50
2023-03-17T16:05:56.693Z,16.50
2023-03-17T16:08:24.881Z,16.40
2023-03-17T16:10:52.260Z,16.40
2023-03-17T16:13:19.664Z,16.40
2023-03-17T16:15:58.483Z,16.30
2023-03-17T16:18:32.863Z,16.30
2023-03-17T16:21:00.896Z,16.30
2023-03-17T16:23:30.962Z,16.20
2023-03-17T16:26:11.692Z,16.10
2023-03-17T16:28:41.205Z,16.10
2023-03-17T16:31:26.188Z,16.10
2023-03-17T16:33:53.962Z,16.00
2023-03-17T16:36:21.868Z,16.00
2023-03-17T16:38:49.623Z,16.00
2023-03-17T16:41:27.420Z,15.90
2023-03-17T16:44:00.356Z,15.90
2023-03-17T16:46:31.697Z,15.80
2023-03-17T16:48:59.514Z,15.70
2023-03-17T16:51:26.337Z,15.70
2023-03-17T16:53:53.138Z,15.60
2023-03-17T16:56:22.305Z,15.50
2023-03-17T16:58:49.501Z,15.50
2023-03-17T17:01:19.973Z,15.40
2023-03-17T17:03:47.533Z,15.30
2023-03-17T17:06:14.829Z,15.40
2023-03-17T17:08:46.045Z,15.50
2023-03-17T17:11:14.213Z,15.60
2023-03-17T17:13:42.031Z,15.60
2023-03-17T17:16:18.099Z,15.60
2023-03-17T17:18:44.944Z,15.60
2023-03-17T17:21:11.672Z,15.60
2023-03-17T17:23:38.490Z,15.60
2023-03-17T17:26:05.397Z,15.50
2023-03-17T17:28:32.296Z,15.40
2023-03-17T17:30:59.712Z,15.30
2023-03-17T17:33:27.027Z,15.30
2023-03-17T17:35:54.064Z,15.20
2023-03-17T17:38:27.575Z,15.10
2023-03-17T17:40:58.869Z,15.10
2023-03-17T17:43:26.161Z,15.10
2023-03-17T17:45:53.419Z,15.10
2023-03-17T17:48:23.105Z,15.00
2023-03-17T17:50:52.249Z,14.90
2023-03-17T17:53:19.087Z,14.90
2023-03-17T17:55:47.634Z,14.80
2023-03-17T17:58:23.747Z,14.70
2023-03-17T18:00:52.568Z,14.60
2023-03-17T18:03:24.473Z,14.50
2023-03-17T18:05:56.207Z,14.40
2023-03-17T18:08:24.253Z,14.30
2023-03-17T18:10:52.268Z,14.20
2023-03-17T18:13:19.349Z,14.20
2023-03-17T18:15:46.178Z,14.10
2023-03-17T18:18:12.961Z,14.00
2023-03-17T18:20:40.102Z,14.00
2023-03-17T18:23:07.862Z,13.90
2023-03-17T18:25:34.690Z,13.80
2023-03-17T18:28:01.706Z,13.80
2023-03-17T18:30:30.865Z,13.80
2023-03-17T18:33:06.516Z,13.80
2023-03-17T18:35:33.754Z,13.80
2023-03-17T18:38:01.444Z,13.80
2023-03-17T18:40:28.204Z,13.80
2023-03-17T18:42:55.838Z,13.90
2023-03-17T18:45:23.151Z,13.90
2023-03-17T18:47:49.919Z,13.90
2023-03-17T18:50:18.201Z,13.90
2023-03-17T18:52:44.963Z,13.90
2023-03-17T18:55:14.183Z,13.90
2023-03-17T18:57:44.362Z,13.90
2023-03-17T19:00:13.918Z,13.90
2023-03-17T19:02:40.762Z,13.90
2023-03-17T19:05:07.867Z,13.90
2023-03-17T19:07:35.641Z,13.90
2023-03-17T19:10:02.541Z,14.00
2023-03-17T19:12:29.570Z,13.90
2023-03-17T19:14:56.416Z,14.00
2023-03-17T19:17:23.379Z,14.00
2023-03-17T19:19:52.874Z,14.00
2023-03-17T19:22:19.633Z,14.00
2023-03-17T19:24:47.875Z,14.00
2023-03-17T19:27:14.617Z,14.00
2023-03-17T19:29:41.471Z,14.00
2023-03-17T19:32:08.832Z,14.00
2023-03-17T19:34:35.624Z,14.00
2023-03-17T19:37:03.667Z,14.00
2023-03-17T19:39:31.387Z,14.00
2023-03-17T19:41:59.257Z,13.90
2023-03-17T19:44:26.436Z,14.00
2023-03-17T19:46:53.328Z,14.00
2023-03-17T19:49:21.145Z,14.00
2023-03-17T19:51:49.027Z,13.90
2023-03-17T19:54:16.625Z,14.00
2023-03-17T19:56:44.343Z,13.90
2023-03-17T19:59:11.219Z,13.90
2023-03-17T20:01:38.452Z,13.90
2023-03-17T20:04:06.893Z,13.90
2023-03-17T20:06:34.736Z,13.90
2023-03-17T20:09:04.212Z,13.80
2023-03-17T20:11:33.863Z,13.80
2023-03-17T20:14:02.040Z,13.80
2023-03-17T20:16:32.650Z,13.80
2023-03-17T20:19:00.453Z,13.70
2023-03-17T20:21:27.631Z,13.70
2023-03-17T20:23:54.597Z,13.70
2023-03-17T20:26:21.299Z,13.70
2023-03-17T20:28:48.185Z,13.60
2023-03-17T20:31:14.988Z,13.60
2023-03-17T20:33:41.977Z,13.60
2023-03-17T20:36:09.402Z,13.60
2023-03-17T20:38:39.081Z,13.60
2023-03-17T20:41:14.387Z,13.50
2023-03-17T20:43:41.751Z,13.50
2023-03-17T20:46:14.120Z,13.50
2023-03-17T20:48:41.301Z,13.50
2023-03-17T20:51:15.602Z,13.40
2023-03-17T20:53:47.494Z,13.40
2023-03-17T20:56:15.800Z,13.40
2023-03-17T20:58:47.043Z,13.30
2023-03-17T21:01:15.339Z,13.20
2023-03-17T21:03:43.275Z,13.20
2023-03-17T21:06:11.044Z,13.20
2023-03-17T21:08:38.627Z,13.10
2023-03-17T21:11:07.950Z,13.10
2023-03-17T21:13:35.298Z,13.00
2023-03-17T21:16:02.466Z,13.00
2023-03-17T21:18:29.690Z,12.90
2023-03-17T21:20:56.896Z,12.90
2023-03-17T21:23:23.790Z,12.90
2023-03-17T21:25:56.639Z,12.80
2023-03-17T21:28:23.848Z,12.80
2023-03-17T21:30:50.599Z,12.80
2023-03-17T21:33:17.459Z,12.80
2023-03-17T21:35:44.259Z,12.70
2023-03-17T21:38:11.098Z,12.70
2023-03-17T21:40:37.804Z,12.60
2023-03-17T21:43:05.657Z,12.60
2023-03-17T21:45:32.651Z,12.60
2023-03-17T21:47:59.436Z,12.60
2023-03-17T21:50:26.980Z,12.60
2023-03-17T21:52:53.804Z,12.50
2023-03-17T21:55:20.812Z,12.50
2023-03-17T21:57:47.577Z,12.40
2023-03-17T22:00:14.790Z,12.40
2023-03-17T22:02:42.607Z,12.40
2023-03-17T22:05:10.424Z,12.40
2023-03-17T22:07:38.607Z,12.40
2023-03-17T22:10:07.231Z,12.30
2023-03-17T22:12:35.296Z,12.30
2023-03-17T22:15:02.571Z,12.30
2023-03-17T22:17:29.361Z,12.20
2023-03-17T22:19:56.174Z,12.20
2023-03-17T22:22:22.978Z,12.20
2023-03-17T22:24:49.821Z,12.20
2023-03-17T22:27:18.182Z,12.10
2023-03-17T22:29:45.021Z,12.10
2023-03-17T22:32:11.852Z,12.10
2023-03-17T22:34:38.721Z,12.00
2023-03-17T22:37:05.733Z,12.00
2023-03-17T22:39:34.591Z,12.00
2023-03-17T22:42:02.047Z,12.00
2023-03-17T22:44:28.894Z,12.00
2023-03-17T22:46:55.843Z,12.00
2023-03-17T22:49:23.653Z,11.90
2023-03-17T22:51:50.509Z,11.90
2023-03-17T22:54:18.612Z,12.00
2023-03-17T22:56:45.402Z,11.90
2023-03-17T22:59:12.241Z,11.90
2023-03-17T23:01:39.202Z,11.90
2023-03-17T23:04:06.346Z,11.90
2023-03-17T23:06:33.943Z,11.90
2023-03-17T23:09:00.774Z,11.90
2023-03-17T23:11:27.980Z,11.80
2023-03-17T23:13:55.342Z,11.80
2023-03-17T23:16:22.726Z,11.80
2023-03-17T23:18:49.867Z,11.80
2023-03-17T23:21:37.920Z,11.70
2023-03-17T23:24:07.580Z,11.70
2023-03-17T23:26:36.822Z,11.60
2023-03-17T23:29:05.069Z,11.60
2023-03-17T23:31:32.120Z,11.60
2023-03-17T23:33:59.256Z,11.60
2023-03-17T23:36:26.322Z,11.50
2023-03-17T23:38:53.118Z,11.50
2023-03-17T23:41:20.288Z,11.50
2023-03-17T23:43:47.224Z,11.50
2023-03-17T23:46:14.625Z,11.40
2023-03-17T23:48:42.951Z,11.40
2023-03-17T23:51:12.019Z,11.40
2023-03-17T23:53:39.686Z,11.30
2023-03-17T23:56:11.341Z,11.30
2023-03-17T23:58:38.604Z,11.30
